createdAt,value
2023-07-19T00:00:38.980Z,56.33
2023-07-19T00:03:05.715Z,56.00
2023-07-19T00:05:32.425Z,56.38
2023-07-19T00:08:00.495Z,56.04
2023-07-19T00:10:27.184Z,55.79
2023-07-19T00:12:56.732Z,55.25
2023-07-19T00:15:24.212Z,55.63
2023-07-19T00:20:17.556Z,54.64
2023-07-19T00:22:44.316Z,54.88
2023-07-19T00:25:12.408Z,54.73
2023-07-19T00:27:39.136Z,55.05
2023-07-19T00:30:07.105Z,54.35
2023-07-19T00:32:33.944Z,54.39
2023-07-19T00:35:00.742Z,53.90
2023-07-19T00:37:27.487Z,53.54
2023-07-19T00:39:54.175Z,53.36
2023-07-19T00:42:22.251Z,53.28
2023-07-19T00:44:49.090Z,52.20
2023-07-19T00:47:15.796Z,51.51
2023-07-19T00:49:42.484Z,50.71
2023-07-19T00:52:09.216Z,50.10
2023-07-19T00:54:37.086Z,50.03
2023-07-19T00:57:04.283Z,50.44
2023-07-19T00:59:33.375Z,50.49
2023-07-19T01:02:00.206Z,50.51
2023-07-19T01:04:27.051Z,51.82
2023-07-19T01:06:53.781Z,52.23
2023-07-19T01:09:20.453Z,52.63
2023-07-19T01:11:47.187Z,52.69
2023-07-19T01:14:13.900Z,52.53
2023-07-19T01:16:41.976Z,51.56
2023-07-19T01:19:09.688Z,51.69
2023-07-19T01:21:36.620Z,51.68
2023-07-19T01:24:05.627Z,51.69
2023-07-19T01:26:32.714Z,51.43
2023-07-19T01:28:59.409Z,51.53
2023-07-19T01:31:26.171Z,51.17
2023-07-19T01:33:52.917Z,51.41
2023-07-19T01:36:19.616Z,51.29
2023-07-19T01:38:46.303Z,51.18
2023-07-19T01:41:15.431Z,51.44
2023-07-19T01:43:43.154Z,51.35
2023-07-19T01:46:09.917Z,51.33
2023-07-19T01:48:36.648Z,51.40
2023-07-19T01:51:03.517Z,51.35
2023-07-19T01:53:30.273Z,51.72
2023-07-19T01:55:57.014Z,52.13
2023-07-19T01:58:25.279Z,51.94
2023-07-19T02:00:53.315Z,51.75
2023-07-19T02:03:20.066Z,51.96
2023-07-19T02:05:56.344Z,52.17
2023-07-19T02:08:23.060Z,52.07
2023-07-19T02:10:49.764Z,52.07
2023-07-19T02:13:17.838Z,52.23
2023-07-19T02:15:49.115Z,52.17
2023-07-19T02:18:18.204Z,51.97
2023-07-19T02:20:45.622Z,52.22
2023-07-19T02:23:12.437Z,51.75
2023-07-19T02:25:40.874Z,51.74
2023-07-19T02:28:07.627Z,51.77
2023-07-19T02:30:34.309Z,51.88
2023-07-19T02:33:02.401Z,52.03
2023-07-19T02:35:30.876Z,52.10
2023-07-19T02:37:57.611Z,51.65
2023-07-19T02:40:24.405Z,51.79
2023-07-19T02:42:51.145Z,51.71
2023-07-19T02:45:17.847Z,52.23
2023-07-19T02:47:44.655Z,51.88
2023-07-19T02:50:12.730Z,52.23
2023-07-19T02:52:39.487Z,52.45
2023-07-19T02:55:07.898Z,51.89
2023-07-19T02:57:34.713Z,52.37
2023-07-19T03:00:01.424Z,52.14
2023-07-19T03:02:28.302Z,52.95
2023-07-19T03:04:55.100Z,52.62
2023-07-19T03:07:23.207Z,52.57
2023-07-19T03:09:49.993Z,53.24
2023-07-19T03:12:16.690Z,54.11
2023-07-19T03:14:43.435Z,53.46
2023-07-19T03:17:10.146Z,53.85
2023-07-19T03:19:36.910Z,53.33
2023-07-19T03:22:03.758Z,53.00
2023-07-19T03:24:31.892Z,52.90
2023-07-19T03:26:58.562Z,53.03
2023-07-19T03:29:25.321Z,53.04
2023-07-19T03:31:52.050Z,53.17
2023-07-19T03:34:18.759Z,53.32
2023-07-19T03:36:45.501Z,53.04
2023-07-19T03:39:12.772Z,53.17
2023-07-19T03:41:40.833Z,53.31
2023-07-19T03:44:07.748Z,53.40
2023-07-19T03:46:35.029Z,53.50
2023-07-19T03:49:02.111Z,53.23
2023-07-19T03:51:28.852Z,53.37
2023-07-19T03:53:56.147Z,53.52
2023-07-19T03:56:24.120Z,53.44
2023-07-19T03:58:52.169Z,53.01
2023-07-19T04:01:19.370Z,52.55
2023-07-19T04:03:48.963Z,52.10
2023-07-19T04:06:16.856Z,52.20
2023-07-19T04:08:43.545Z,52.60
2023-07-19T04:11:10.846Z,52.63
2023-07-19T04:13:37.537Z,53.07
2023-07-19T04:16:05.800Z,53.00
2023-07-19T04:18:32.494Z,53.31
2023-07-19T04:20:59.247Z,53.19
2023-07-19T04:23:27.643Z,53.23
2023-07-19T04:25:54.511Z,52.71
2023-07-19T04:28:21.845Z,52.20
2023-07-19T04:30:50.304Z,51.69
2023-07-19T04:33:20.084Z,50.43
2023-07-19T04:35:46.901Z,49.90
2023-07-19T04:38:13.688Z,48.73
2023-07-19T04:40:40.440Z,47.90
2023-07-19T04:43:07.173Z,47.82
2023-07-19T04:45:33.895Z,47.09
2023-07-19T04:48:00.885Z,46.31
2023-07-19T04:50:29.065Z,46.33
2023-07-19T04:52:55.962Z,46.07
2023-07-19T04:55:22.725Z,45.33
2023-07-19T04:57:51.215Z,44.63
2023-07-19T05:00:19.772Z,44.66
2023-07-19T05:02:46.708Z,44.55
2023-07-19T05:05:13.826Z,44.39
2023-07-19T05:07:42.257Z,44.24
2023-07-19T05:10:10.007Z,44.63
2023-07-19T05:12:36.715Z,44.77
2023-07-19T05:15:04.705Z,44.94
2023-07-19T05:17:31.477Z,44.65
2023-07-19T05:19:58.647Z,45.04
2023-07-19T05:22:25.812Z,44.99
2023-07-19T05:24:53.903Z,45.06
2023-07-19T05:27:20.590Z,45.24
2023-07-19T05:29:47.332Z,45.63
2023-07-19T05:32:14.034Z,46.26
2023-07-19T05:34:40.757Z,46.55
2023-07-19T05:37:07.454Z,47.56
2023-07-19T05:39:34.377Z,49.18
2023-07-19T05:42:02.486Z,50.37
2023-07-19T05:44:29.183Z,51.48
2023-07-19T05:46:55.917Z,51.87
2023-07-19T05:49:22.651Z,52.00
2023-07-19T05:51:49.384Z,51.71
2023-07-19T05:54:16.101Z,51.74
2023-07-19T05:56:42.827Z,51.40
2023-07-19T05:59:10.867Z,51.05
2023-07-19T06:01:38.066Z,50.63
2023-07-19T06:04:05.336Z,50.37
2023-07-19T06:06:32.145Z,50.53
2023-07-19T06:08:58.846Z,50.36
2023-07-19T06:11:25.531Z,50.38
2023-07-19T06:13:52.240Z,49.80
2023-07-19T06:16:20.356Z,49.65
2023-07-19T06:18:47.080Z,49.29
2023-07-19T06:21:13.782Z,49.50
2023-07-19T06:23:40.494Z,49.57
2023-07-19T06:26:07.258Z,49.70
2023-07-19T06:28:34.023Z,50.28
2023-07-19T06:31:00.738Z,49.91
2023-07-19T06:33:28.849Z,50.01
2023-07-19T06:35:55.556Z,49.20
2023-07-19T06:38:22.297Z,49.22
2023-07-19T06:40:49.013Z,47.99
2023-07-19T06:43:15.792Z,47.92
2023-07-19T06:45:42.549Z,49.13
2023-07-19T06:48:09.317Z,50.41
2023-07-19T06:50:37.932Z,51.03
2023-07-19T06:53:04.695Z,50.77
2023-07-19T06:55:31.394Z,50.75
2023-07-19T06:57:58.113Z,50.92
2023-07-19T07:00:25.126Z,50.76
2023-07-19T07:02:51.948Z,50.39
2023-07-19T07:05:18.670Z,50.71
2023-07-19T07:07:46.774Z,51.17
2023-07-19T07:10:13.507Z,50.49
2023-07-19T07:12:41.551Z,49.39
2023-07-19T07:15:08.741Z,49.87
2023-07-19T07:17:35.660Z,49.99
2023-07-19T07:20:02.349Z,49.84
2023-07-19T07:22:29.128Z,49.98
2023-07-19T07:24:57.447Z,49.44
2023-07-19T07:27:24.162Z,50.29
2023-07-19T07:29:50.870Z,49.93
2023-07-19T07:32:17.661Z,48.73
2023-07-19T07:34:44.474Z,47.98
2023-07-19T07:37:11.320Z,47.79
2023-07-19T07:39:38.056Z,48.09
2023-07-19T07:42:06.745Z,48.14
2023-07-19T07:44:33.464Z,48.10
2023-07-19T07:47:00.293Z,47.83
2023-07-19T07:49:26.983Z,47.49
2023-07-19T07:51:53.712Z,47.81
2023-07-19T07:54:20.408Z,46.95
2023-07-19T07:56:47.131Z,46.43
2023-07-19T07:59:15.189Z,45.15
2023-07-19T08:01:41.906Z,44.92
2023-07-19T08:04:10.357Z,43.93
2023-07-19T08:06:37.301Z,44.95
2023-07-19T08:09:04.031Z,44.91
2023-07-19T08:11:30.767Z,44.25
2023-07-19T08:13:57.488Z,43.48
2023-07-19T08:16:25.586Z,42.99
2023-07-19T08:18:52.296Z,43.33
2023-07-19T08:21:29.866Z,42.55
2023-07-19T08:24:02.424Z,42.89
2023-07-19T08:26:29.210Z,43.42
2023-07-19T08:28:55.960Z,43.90
2023-07-19T08:31:22.877Z,43.46
2023-07-19T08:33:52.483Z,43.42
2023-07-19T08:36:19.276Z,43.55
2023-07-19T08:38:46.032Z,43.59
2023-07-19T08:41:13.097Z,43.91
2023-07-19T08:43:39.863Z,43.00
2023-07-19T08:46:06.563Z,42.64
2023-07-19T08:48:33.710Z,42.38
2023-07-19T08:51:02.033Z,41.79
2023-07-19T08:53:28.832Z,41.97
2023-07-19T08:55:55.568Z,43.11
2023-07-19T08:58:22.325Z,43.82
2023-07-19T09:00:49.863Z,44.11
2023-07-19T09:03:16.715Z,43.67
2023-07-19T09:05:44.739Z,43.40
2023-07-19T09:08:12.878Z,43.61
2023-07-19T09:10:43.249Z,43.84
2023-07-19T09:13:10.016Z,43.56
2023-07-19T09:15:36.753Z,43.10
2023-07-19T09:18:03.984Z,44.20
2023-07-19T09:20:30.824Z,43.75
2023-07-19T09:22:57.649Z,44.82
2023-07-19T09:25:25.820Z,44.22
2023-07-19T09:27:52.794Z,44.11
2023-07-19T09:30:19.563Z,43.35
2023-07-19T09:32:46.375Z,44.01
2023-07-19T09:35:13.124Z,45.31
2023-07-19T09:37:39.801Z,45.67
2023-07-19T09:40:07.444Z,46.01
2023-07-19T09:42:35.473Z,46.45
2023-07-19T09:45:03.734Z,46.78
2023-07-19T09:47:31.291Z,46.95
2023-07-19T09:49:57.987Z,47.06
2023-07-19T09:52:25.575Z,47.24
2023-07-19T09:54:52.292Z,47.85
2023-07-19T09:57:21.738Z,48.38
2023-07-19T09:59:50.600Z,47.80
2023-07-19T10:02:17.317Z,47.40
2023-07-19T10:04:44.164Z,46.77
2023-07-19T10:07:11.908Z,47.45
2023-07-19T10:09:39.779Z,46.80
2023-07-19T10:12:08.343Z,46.11
2023-07-19T10:14:35.152Z,45.93
2023-07-19T10:17:03.804Z,46.24
2023-07-19T10:19:31.010Z,45.68
2023-07-19T10:22:01.635Z,46.13
2023-07-19T10:24:28.320Z,45.08
2023-07-19T10:26:55.073Z,44.41
2023-07-19T10:29:24.096Z,43.61
2023-07-19T10:31:50.822Z,43.58
2023-07-19T10:34:42.434Z,43.03
2023-07-19T10:37:11.464Z,40.05
2023-07-19T10:39:38.138Z,41.73
2023-07-19T10:42:05.620Z,43.11
2023-07-19T10:44:32.575Z,44.44
2023-07-19T10:46:59.345Z,43.97
2023-07-19T10:49:28.220Z,43.81
2023-07-19T10:51:55.267Z,42.02
2023-07-19T10:54:23.238Z,41.99
2023-07-19T10:56:50.170Z,41.77
2023-07-19T10:59:17.035Z,40.62
2023-07-19T11:01:44.205Z,40.18
2023-07-19T11:04:11.003Z,40.88
2023-07-19T11:06:39.451Z,39.74
2023-07-19T11:09:06.925Z,36.87
2023-07-19T11:11:35.476Z,36.25
2023-07-19T11:14:02.185Z,36.67
2023-07-19T11:16:28.957Z,34.56
2023-07-19T11:18:55.698Z,35.52
2023-07-19T11:21:25.436Z,35.46
2023-07-19T11:23:53.662Z,33.23
2023-07-19T11:26:21.250Z,35.09
2023-07-19T11:28:48.697Z,35.14
2023-07-19T11:31:28.522Z,34.60
2023-07-19T11:33:58.639Z,34.67
2023-07-19T11:36:25.398Z,34.52
2023-07-19T11:38:53.455Z,33.57
2023-07-19T11:41:20.479Z,33.54
2023-07-19T11:43:50.604Z,33.94
2023-07-19T11:46:17.432Z,34.55
2023-07-19T11:48:44.217Z,34.16
2023-07-19T11:51:10.909Z,33.87
2023-07-19T11:53:37.601Z,34.82
2023-07-19T11:56:11.820Z,34.42
2023-07-19T11:58:44.989Z,33.19
2023-07-19T12:01:13.431Z,29.96
2023-07-19T12:03:40.350Z,29.31
2023-07-19T12:06:07.060Z,27.94
2023-07-19T12:08:33.821Z,29.10
2023-07-19T12:11:00.503Z,31.21
2023-07-19T12:13:28.624Z,32.26
2023-07-19T12:15:55.355Z,32.79
2023-07-19T12:18:22.053Z,32.61
2023-07-19T12:20:48.758Z,32.68
2023-07-19T12:23:15.583Z,32.06
2023-07-19T12:25:42.371Z,32.49
2023-07-19T12:28:09.128Z,31.25
2023-07-19T12:30:37.194Z,31.18
2023-07-19T12:33:04.169Z,30.19
2023-07-19T12:35:30.884Z,29.82
2023-07-19T12:37:57.604Z,30.66
2023-07-19T12:40:24.294Z,29.30
2023-07-19T12:42:51.004Z,30.08
2023-07-19T12:45:17.748Z,30.76
2023-07-19T12:47:45.816Z,32.13
2023-07-19T12:50:12.607Z,31.56
2023-07-19T12:52:51.174Z,31.30
2023-07-19T12:55:19.498Z,30.80
2023-07-19T12:57:46.352Z,29.40
2023-07-19T13:00:13.819Z,28.60
2023-07-19T13:02:40.752Z,27.79
2023-07-19T13:05:09.380Z,28.51
2023-07-19T13:07:36.254Z,28.94
2023-07-19T13:10:03.170Z,29.84
2023-07-19T13:12:29.842Z,29.77
2023-07-19T13:14:56.574Z,29.13
2023-07-19T13:17:23.350Z,28.71
2023-07-19T13:19:50.125Z,28.82
2023-07-19T13:22:18.154Z,28.26
2023-07-19T13:24:44.836Z,28.02
2023-07-19T13:27:11.528Z,28.25
2023-07-19T13:29:38.385Z,27.41
2023-07-19T13:32:06.906Z,26.09
2023-07-19T13:34:35.161Z,25.81
2023-07-19T13:37:06.165Z,25.51
2023-07-19T13:39:35.619Z,24.47
2023-07-19T13:42:03.004Z,23.28
2023-07-19T13:44:29.707Z,24.30
2023-07-19T13:46:56.442Z,24.27
2023-07-19T13:49:23.175Z,25.17
2023-07-19T13:51:49.867Z,25.50
2023-07-19T13:54:16.595Z,23.70
2023-07-19T13:56:44.655Z,24.55
2023-07-19T13:59:11.391Z,25.08
2023-07-19T14:01:38.232Z,24.10
2023-07-19T14:04:05.419Z,23.71
2023-07-19T14:06:32.228Z,25.00
2023-07-19T14:08:59.061Z,25.67
2023-07-19T14:11:27.771Z,25.10
2023-07-19T14:13:56.327Z,25.45
2023-07-19T14:16:23.689Z,26.43
2023-07-19T14:18:50.737Z,25.93
2023-07-19T14:21:17.506Z,25.84
2023-07-19T14:23:44.270Z,26.93
2023-07-19T14:26:11.006Z,25.45
2023-07-19T14:28:37.772Z,23.20
2023-07-19T14:31:05.898Z,20.39
2023-07-19T14:33:32.800Z,20.60
2023-07-19T14:36:00.679Z,19.94
2023-07-19T14:38:27.768Z,20.00
2023-07-19T14:40:54.890Z,20.31
2023-07-19T14:43:22.019Z,20.05
2023-07-19T14:45:48.759Z,19.49
2023-07-19T14:48:16.833Z,20.44
2023-07-19T14:50:43.528Z,20.40
2023-07-19T14:53:10.262Z,18.42
2023-07-19T14:55:36.941Z,18.92
2023-07-19T14:58:03.649Z,18.69
2023-07-19T15:03:00.356Z,18.67
2023-07-19T15:05:28.991Z,19.52
2023-07-19T15:07:56.097Z,20.20
2023-07-19T15:10:23.288Z,20.28
2023-07-19T15:12:50.308Z,20.03
2023-07-19T15:15:17.336Z,19.68
2023-07-19T15:17:44.254Z,20.51
2023-07-19T15:20:11.638Z,19.80
2023-07-19T15:22:39.716Z,20.36
2023-07-19T15:25:06.705Z,19.53
2023-07-19T15:27:34.247Z,19.08
2023-07-19T15:30:01.039Z,19.64
2023-07-19T15:32:27.852Z,19.71
2023-07-19T15:34:54.573Z,20.57
2023-07-19T15:37:21.321Z,20.75
2023-07-19T15:39:49.371Z,20.96
2023-07-19T15:42:16.067Z,20.58
2023-07-19T15:44:42.799Z,20.15
2023-07-19T15:47:09.521Z,20.75
2023-07-19T15:49:36.231Z,21.19
2023-07-19T15:52:03.178Z,21.38
2023-07-19T15:54:30.068Z,21.03
2023-07-19T15:56:58.371Z,21.00
2023-07-19T15:59:25.133Z,21.05
2023-07-19T16:01:51.863Z,21.42
2023-07-19T16:04:18.649Z,21.19
2023-07-19T16:06:45.335Z,21.33
2023-07-19T16:09:12.063Z,21.14
2023-07-19T16:11:38.811Z,20.91
2023-07-19T16:14:08.056Z,20.22
2023-07-19T16:16:34.882Z,20.47
2023-07-19T16:19:01.836Z,19.67
2023-07-19T16:21:28.536Z,19.67
2023-07-19T16:23:55.251Z,19.98
2023-07-19T16:26:22.017Z,19.83
2023-07-19T16:28:48.775Z,20.22
2023-07-19T16:31:18.349Z,19.97
2023-07-19T16:33:45.108Z,20.24
2023-07-19T16:36:11.814Z,20.64
2023-07-19T16:38:38.499Z,20.74
2023-07-19T16:41:05.281Z,20.21
2023-07-19T16:43:32.098Z,21.31
2023-07-19T16:45:58.840Z,21.00
2023-07-19T16:48:27.076Z,21.23
2023-07-19T16:50:53.771Z,21.74
2023-07-19T16:53:20.506Z,21.04
2023-07-19T16:55:47.881Z,21.51
2023-07-19T16:58:14.648Z,21.59
2023-07-19T17:00:41.397Z,20.46
2023-07-19T17:03:08.291Z,20.29
2023-07-19T17:05:37.145Z,20.35
2023-07-19T17:08:03.975Z,19.99
2023-07-19T17:10:30.709Z,19.81
2023-07-19T17:12:57.409Z,20.17
2023-07-19T17:15:24.137Z,19.69
2023-07-19T17:17:50.896Z,19.72
2023-07-19T17:20:17.681Z,19.34
2023-07-19T17:22:45.897Z,20.02
2023-07-19T17:25:12.583Z,20.70
2023-07-19T17:27:39.266Z,20.79
2023-07-19T17:30:07.080Z,21.03
2023-07-19T17:32:33.912Z,21.35
2023-07-19T17:35:00.691Z,21.58
2023-07-19T17:37:27.390Z,21.03
2023-07-19T17:39:55.422Z,21.13
2023-07-19T17:42:22.219Z,21.58
2023-07-19T17:44:48.914Z,21.50
2023-07-19T17:47:15.611Z,21.14
2023-07-19T17:49:42.280Z,20.89
2023-07-19T17:52:09.112Z,20.41
2023-07-19T17:54:35.815Z,20.87
2023-07-19T17:57:04.155Z,20.32
2023-07-19T17:59:30.856Z,20.81
2023-07-19T18:01:57.581Z,20.89
2023-07-19T18:04:24.320Z,21.09
2023-07-19T18:06:51.078Z,21.00
2023-07-19T18:09:17.789Z,21.42
2023-07-19T18:11:44.492Z,22.06
2023-07-19T18:14:12.666Z,21.92
2023-07-19T18:16:42.568Z,22.09
2023-07-19T18:19:09.330Z,22.25
2023-07-19T18:21:36.012Z,23.00
2023-07-19T18:24:02.753Z,23.67
2023-07-19T18:26:29.440Z,23.15
2023-07-19T18:28:56.162Z,23.42
2023-07-19T18:31:24.509Z,23.89
2023-07-19T18:33:51.536Z,23.83
2023-07-19T18:36:18.231Z,24.46
2023-07-19T18:38:44.997Z,24.73
2023-07-19T18:41:11.803Z,25.68
2023-07-19T18:43:38.522Z,25.31
2023-07-19T18:46:05.268Z,25.58
2023-07-19T18:48:33.573Z,26.14
2023-07-19T18:51:00.387Z,26.15
2023-07-19T18:53:27.079Z,26.02
2023-07-19T18:55:53.788Z,26.04
2023-07-19T18:58:20.506Z,26.58
2023-07-19T19:00:47.503Z,27.16
2023-07-19T19:03:14.384Z,27.51
2023-07-19T19:05:42.593Z,28.27
2023-07-19T19:08:09.305Z,28.40
2023-07-19T19:10:36.077Z,27.88
2023-07-19T19:13:02.811Z,27.75
2023-07-19T19:15:29.532Z,28.23
2023-07-19T19:17:56.323Z,27.95
2023-07-19T19:20:23.027Z,28.68
2023-07-19T19:22:51.209Z,28.09
2023-07-19T19:25:18.110Z,28.32
2023-07-19T19:27:44.830Z,28.88
2023-07-19T19:30:12.031Z,29.11
2023-07-19T19:32:38.755Z,28.51
2023-07-19T19:35:06.099Z,28.57
2023-07-19T19:37:32.864Z,29.07
2023-07-19T19:40:01.009Z,28.84
2023-07-19T19:42:27.748Z,29.25
2023-07-19T19:44:54.451Z,29.21
2023-07-19T19:47:21.162Z,29.64
2023-07-19T19:49:47.937Z,29.47
2023-07-19T19:52:14.886Z,29.86
2023-07-19T19:54:41.804Z,29.66
2023-07-19T19:57:10.143Z,30.10
2023-07-19T19:59:36.844Z,29.84
2023-07-19T20:04:33.732Z,30.40
2023-07-19T20:07:00.706Z,30.39
2023-07-19T20:09:30.895Z,30.81
2023-07-19T20:11:58.634Z,30.52
2023-07-19T20:14:26.709Z,30.25
2023-07-19T20:16:53.558Z,30.37
2023-07-19T20:21:49.931Z,31.41
2023-07-19T20:24:19.677Z,31.20
2023-07-19T20:26:52.643Z,31.51
2023-07-19T20:36:49.630Z,31.90
2023-07-19T20:41:45.989Z,31.61
2023-07-19T20:44:13.104Z,31.54
2023-07-19T20:46:41.142Z,31.91
2023-07-19T20:49:14.013Z,32.36
2023-07-19T20:51:41.297Z,31.99
2023-07-19T20:54:07.992Z,32.19
2023-07-19T20:56:34.770Z,32.40
2023-07-19T20:59:01.474Z,32.09
2023-07-19T21:01:28.231Z,32.06
2023-07-19T21:03:55.087Z,32.24
2023-07-19T21:06:23.360Z,33.15
2023-07-19T21:08:50.113Z,32.86
2023-07-19T21:11:16.887Z,32.87
2023-07-19T21:13:43.698Z,32.87
2023-07-19T21:16:10.482Z,32.95
2023-07-19T21:18:37.191Z,32.80
2023-07-19T21:21:04.056Z,33.11
2023-07-19T21:23:32.099Z,33.05
2023-07-19T21:25:58.819Z,33.32
2023-07-19T21:28:25.571Z,33.68
2023-07-19T21:30:52.341Z,33.90
2023-07-19T21:33:19.027Z,34.25
2023-07-19T21:35:45.769Z,34.37
2023-07-19T21:38:12.575Z,34.48
2023-07-19T21:40:40.612Z,34.50
2023-07-19T21:43:07.304Z,34.54
2023-07-19T21:45:34.067Z,34.33
2023-07-19T21:48:00.854Z,34.61
2023-07-19T21:50:27.610Z,34.60
2023-07-19T21:52:54.360Z,34.78
2023-07-19T21:55:21.049Z,35.04
2023-07-19T21:57:49.157Z,34.93
2023-07-19T22:00:16.332Z,35.36
2023-07-19T22:02:43.094Z,35.10
2023-07-19T22:05:10.020Z,35.22
2023-07-19T22:07:36.761Z,35.24
2023-07-19T22:10:03.667Z,35.27
2023-07-19T22:12:30.364Z,35.19
2023-07-19T22:15:07.829Z,35.10
2023-07-19T22:17:35.433Z,35.12
2023-07-19T22:20:02.216Z,35.10
2023-07-19T22:22:28.961Z,34.91
2023-07-19T22:24:55.678Z,35.32
2023-07-19T22:27:22.406Z,35.21
2023-07-19T22:29:50.979Z,35.17
2023-07-19T22:32:19.052Z,35.12
2023-07-19T22:34:45.750Z,35.36
2023-07-19T22:37:12.554Z,35.26
2023-07-19T22:39:39.289Z,35.17
2023-07-19T22:42:06.240Z,35.11
2023-07-19T22:44:32.922Z,34.91
2023-07-19T22:46:59.656Z,34.94
2023-07-19T22:49:27.742Z,34.89
2023-07-19T22:51:54.440Z,34.74
2023-07-19T22:54:21.124Z,34.70
2023-07-19T22:56:47.846Z,34.77
2023-07-19T22:59:14.527Z,34.63
2023-07-19T23:01:41.256Z,34.59
2023-07-19T23:04:07.990Z,34.90
2023-07-19T23:06:36.066Z,34.88
2023-07-19T23:09:02.818Z,34.51
2023-07-19T23:11:29.527Z,34.87
2023-07-19T23:13:56.219Z,35.78
2023-07-19T23:16:23.279Z,35.95
2023-07-19T23:18:50.278Z,36.32
2023-07-19T23:21:16.993Z,36.36
2023-07-19T23:23:45.049Z,36.64
2023-07-19T23:26:11.771Z,36.08
2023-07-19T23:28:38.444Z,36.46
2023-07-19T23:31:06.871Z,35.98
2023-07-19T23:33:33.614Z,36.25
2023-07-19T23:36:00.308Z,36.10
2023-07-19T23:38:27.087Z,35.85
2023-07-19T23:40:55.168Z,36.11
2023-07-19T23:43:21.935Z,36.21
2023-07-19T23:45:48.621Z,36.36
2023-07-19T23:48:16.410Z,36.25
2023-07-19T23:50:43.099Z,36.53
2023-07-19T23:53:09.815Z,36.43
2023-07-19T23:55:36.498Z,35.93
2023-07-19T23:58:04.662Z,36.11
